createdAt,value
2018-08-17T00:00:07.269Z,1.98
2018-08-17T00:02:35.619Z,1.90
2018-08-17T00:05:03.930Z,1.80
2018-08-17T00:07:32.922Z,1.82
2018-08-17T00:10:01.243Z,1.82
2018-08-17T00:12:29.489Z,2.00
2018-08-17T00:14:58.066Z,1.77
2018-08-17T00:17:27.403Z,2.42
2018-08-17T00:19:55.687Z,1.70
2018-08-17T00:22:23.994Z,2.12
2018-08-17T00:24:52.328Z,1.90
2018-08-17T00:27:20.578Z,1.98
2018-08-17T00:29:49.673Z,1.90
2018-08-17T00:32:18.293Z,2.20
2018-08-17T00:34:46.526Z,2.33
2018-08-17T00:37:14.876Z,1.87
2018-08-17T00:39:43.203Z,2.00
2018-08-17T00:42:11.433Z,2.15
2018-08-17T00:44:40.154Z,1.85
2018-08-17T00:47:08.393Z,1.92
2018-08-17T00:49:36.630Z,1.75
2018-08-17T00:52:05.699Z,2.00
2018-08-17T00:54:33.957Z,2.08
2018-08-17T00:57:02.253Z,1.80
2018-08-17T00:59:30.600Z,2.35
2018-08-17T01:01:58.843Z,2.00
2018-08-17T01:04:27.074Z,1.95
2018-08-17T01:06:55.494Z,1.70
2018-08-17T01:09:23.867Z,2.05
2018-08-17T01:11:52.109Z,1.72
2018-08-17T01:14:20.697Z,3.50
2018-08-17T01:16:49.003Z,2.08
2018-08-17T01:19:18.191Z,1.95
2018-08-17T01:21:46.529Z,1.98
2018-08-17T01:24:14.767Z,1.98
2018-08-17T01:26:43.108Z,1.70
2018-08-17T01:29:11.381Z,1.67
2018-08-17T01:31:39.621Z,1.80
2018-08-17T01:34:07.858Z,2.15
2018-08-17T01:36:37.039Z,1.80
2018-08-17T01:39:07.377Z,1.80
2018-08-17T01:41:35.632Z,1.52
2018-08-17T01:44:03.913Z,2.02
2018-08-17T01:46:32.319Z,2.00
2018-08-17T01:49:00.873Z,1.90
2018-08-17T01:51:29.091Z,1.70
2018-08-17T01:53:57.390Z,1.67
2018-08-17T01:56:25.909Z,1.67
2018-08-17T01:58:54.220Z,1.60
2018-08-17T02:01:22.462Z,1.80
2018-08-17T02:03:53.023Z,1.98
2018-08-17T02:06:21.413Z,1.65
2018-08-17T02:08:49.645Z,1.75
2018-08-17T02:11:17.919Z,1.52
2018-08-17T02:13:46.235Z,1.60
2018-08-17T02:16:14.473Z,1.77
2018-08-17T02:18:43.172Z,1.70
2018-08-17T02:21:11.879Z,1.70
2018-08-17T02:23:40.253Z,1.42
2018-08-17T02:26:09.327Z,1.62
2018-08-17T02:28:37.614Z,1.77
2018-08-17T02:31:05.926Z,1.70
2018-08-17T02:33:34.203Z,1.77
2018-08-17T02:36:02.440Z,1.60
2018-08-17T02:38:30.668Z,1.67
2018-08-17T02:40:59.297Z,1.60
2018-08-17T02:43:27.521Z,1.70
2018-08-17T02:45:55.941Z,1.70
2018-08-17T02:48:24.638Z,1.80
2018-08-17T02:50:53.163Z,1.70
2018-08-17T02:53:21.421Z,1.70
2018-08-17T02:55:49.718Z,1.70
2018-08-17T02:58:18.035Z,1.75
2018-08-17T03:00:46.278Z,1.85
2018-08-17T03:03:14.710Z,2.02
2018-08-17T03:05:42.931Z,1.95
2018-08-17T03:08:11.166Z,2.12
2018-08-17T03:10:39.958Z,1.77
2018-08-17T03:13:08.222Z,1.70
2018-08-17T03:15:36.438Z,1.90
2018-08-17T03:18:04.841Z,2.00
2018-08-17T03:20:33.077Z,1.90
2018-08-17T03:23:02.174Z,1.85
2018-08-17T03:25:30.518Z,1.75
2018-08-17T03:27:58.743Z,1.50
2018-08-17T03:30:27.017Z,1.60
2018-08-17T03:32:55.983Z,2.05
2018-08-17T03:35:24.292Z,1.70
2018-08-17T03:37:52.551Z,1.75
2018-08-17T03:40:20.930Z,1.70
2018-08-17T03:42:49.246Z,1.80
2018-08-17T03:45:17.474Z,1.60
2018-08-17T03:47:45.817Z,1.85
2018-08-17T03:50:14.077Z,1.62
2018-08-17T03:52:42.398Z,2.25
2018-08-17T03:55:11.703Z,1.90
2018-08-17T03:57:40.018Z,1.65
2018-08-17T04:00:08.290Z,1.77
2018-08-17T04:02:37.040Z,1.57
2018-08-17T04:05:05.548Z,1.70
2018-08-17T04:07:33.791Z,1.55
2018-08-17T04:10:02.383Z,1.60
2018-08-17T04:12:30.677Z,1.70
2018-08-17T04:14:58.910Z,1.37
2018-08-17T04:17:27.730Z,1.80
2018-08-17T04:19:56.077Z,1.70
2018-08-17T04:22:24.307Z,1.70
2018-08-17T04:24:53.664Z,1.70
2018-08-17T04:27:21.971Z,1.50
2018-08-17T04:29:50.282Z,1.60
2018-08-17T04:32:18.818Z,1.72
2018-08-17T04:34:47.066Z,1.77
2018-08-17T04:37:15.314Z,1.75
2018-08-17T04:39:44.066Z,1.57
2018-08-17T04:42:12.301Z,1.75
2018-08-17T04:44:40.555Z,2.55
2018-08-17T04:47:09.125Z,2.15
2018-08-17T04:49:37.386Z,2.02
2018-08-17T04:52:05.660Z,2.02
2018-08-17T04:54:34.442Z,1.67
2018-08-17T04:57:02.671Z,1.40
2018-08-17T04:59:30.995Z,2.08
2018-08-17T05:02:00.238Z,2.52
2018-08-17T05:04:30.130Z,2.72
2018-08-17T05:06:58.364Z,2.80
2018-08-17T05:09:27.282Z,2.70
2018-08-17T05:11:55.584Z,2.72
2018-08-17T05:14:23.826Z,2.50
2018-08-17T05:16:52.526Z,3.90
2018-08-17T05:19:20.782Z,2.95
2018-08-17T05:21:49.025Z,5.12
2018-08-17T05:24:18.161Z,5.08
2018-08-17T05:26:47.246Z,5.33
2018-08-17T05:29:15.550Z,5.53
2018-08-17T05:31:44.131Z,4.20
2018-08-17T05:34:12.686Z,6.35
2018-08-17T05:36:40.996Z,3.67
2018-08-17T05:39:09.677Z,3.72
2018-08-17T05:41:38.017Z,4.00
2018-08-17T05:44:06.265Z,5.25
2018-08-17T05:46:35.419Z,3.20
2018-08-17T05:49:03.674Z,6.15
2018-08-17T05:51:31.995Z,4.37
2018-08-17T05:54:00.593Z,4.05
2018-08-17T05:56:28.832Z,5.15
2018-08-17T05:58:57.081Z,3.47
2018-08-17T06:01:25.490Z,5.60
2018-08-17T06:03:53.875Z,3.02
2018-08-17T06:06:22.135Z,3.37
2018-08-17T06:08:50.779Z,3.35
2018-08-17T06:11:19.188Z,3.17
2018-08-17T06:13:47.247Z,5.42
2018-08-17T06:16:15.974Z,3.30
2018-08-17T06:18:44.218Z,3.27
2018-08-17T06:21:12.528Z,3.95
2018-08-17T06:23:41.618Z,3.37
2018-08-17T06:26:09.878Z,3.45
2018-08-17T06:28:39.009Z,3.42
2018-08-17T06:31:07.324Z,4.37
2018-08-17T06:33:35.563Z,3.15
2018-08-17T06:36:03.837Z,3.12
2018-08-17T06:38:32.615Z,4.87
2018-08-17T06:41:00.865Z,3.80
2018-08-17T06:43:29.102Z,3.98
2018-08-17T06:45:57.526Z,5.03
2018-08-17T06:48:25.761Z,7.55
2018-08-17T06:50:54.140Z,7.70
2018-08-17T06:53:22.578Z,8.43
2018-08-17T06:55:50.827Z,5.15
2018-08-17T06:58:19.054Z,5.67
2018-08-17T07:00:48.134Z,8.70
2018-08-17T07:03:16.450Z,4.95
2018-08-17T07:05:44.696Z,6.10
2018-08-17T07:08:13.467Z,6.83
2018-08-17T07:10:41.718Z,8.33
2018-08-17T07:13:09.970Z,6.50
2018-08-17T07:15:38.509Z,6.62
2018-08-17T07:18:06.946Z,8.90
2018-08-17T07:20:35.210Z,9.65
2018-08-17T07:23:03.651Z,3.83
2018-08-17T07:25:31.894Z,8.48
2018-08-17T07:28:00.239Z,5.62
2018-08-17T07:30:30.110Z,7.50
2018-08-17T07:32:58.344Z,7.20
2018-08-17T07:35:26.594Z,10.25
2018-08-17T07:37:54.986Z,5.45
2018-08-17T07:40:23.226Z,5.65
2018-08-17T07:42:51.576Z,6.12
2018-08-17T07:45:21.206Z,6.30
2018-08-17T07:47:49.561Z,6.62
2018-08-17T07:50:20.270Z,5.15
2018-08-17T07:52:48.926Z,9.08
2018-08-17T07:55:17.171Z,5.72
2018-08-17T07:57:45.454Z,8.68
2018-08-17T08:00:14.216Z,7.42
2018-08-17T08:02:42.643Z,5.97
2018-08-17T08:05:12.546Z,5.78
2018-08-17T08:07:41.341Z,7.60
2018-08-17T08:10:10.671Z,6.80
2018-08-17T08:12:39.163Z,8.05
2018-08-17T08:15:07.676Z,5.55
2018-08-17T08:17:36.218Z,7.58
2018-08-17T08:20:16.386Z,6.35
2018-08-17T08:22:44.568Z,7.55
2018-08-17T08:25:12.815Z,9.05
2018-08-17T08:27:41.124Z,7.58
2018-08-17T08:30:09.394Z,6.33
2018-08-17T08:32:37.763Z,7.45
2018-08-17T08:35:07.526Z,5.15
2018-08-17T08:37:35.822Z,6.90
2018-08-17T08:40:04.428Z,8.98
2018-08-17T08:42:33.089Z,7.10
2018-08-17T08:45:01.333Z,6.50
2018-08-17T08:47:29.719Z,9.18
2018-08-17T08:49:58.118Z,9.58
2018-08-17T08:52:26.420Z,5.80
2018-08-17T08:54:54.654Z,9.23
2018-08-17T08:57:24.071Z,6.47
2018-08-17T08:59:52.390Z,7.08
2018-08-17T09:02:20.650Z,6.03
2018-08-17T09:04:48.947Z,7.85
2018-08-17T09:07:17.954Z,8.68
2018-08-17T09:09:46.193Z,6.42
2018-08-17T09:12:14.566Z,9.83
2018-08-17T09:14:42.826Z,8.38
2018-08-17T09:17:11.086Z,7.08
2018-08-17T09:19:40.610Z,9.98
2018-08-17T09:22:08.866Z,8.65
2018-08-17T09:24:37.210Z,8.58
2018-08-17T09:27:05.731Z,6.33
2018-08-17T09:29:33.971Z,8.38
2018-08-17T09:32:02.518Z,9.20
2018-08-17T09:34:30.822Z,9.25
2018-08-17T09:36:59.200Z,8.83
2018-08-17T09:39:28.870Z,8.63
2018-08-17T09:41:57.458Z,7.20
2018-08-17T09:44:25.898Z,7.33
2018-08-17T09:46:54.733Z,10.08
2018-08-17T09:49:22.964Z,6.25
2018-08-17T09:51:51.210Z,8.18
2018-08-17T09:54:19.598Z,6.85
2018-08-17T09:56:47.907Z,7.72
2018-08-17T09:59:16.153Z,9.80
2018-08-17T10:01:50.442Z,8.25
2018-08-17T10:04:24.133Z,7.42
2018-08-17T10:07:58.447Z,9.08
2018-08-17T10:10:27.670Z,6.85
2018-08-17T10:12:55.978Z,9.20
2018-08-17T10:15:24.393Z,8.10
2018-08-17T10:17:52.718Z,9.00
2018-08-17T10:20:22.258Z,12.35
2018-08-17T10:22:50.886Z,9.30
2018-08-17T10:25:25.379Z,8.60
2018-08-17T10:27:58.611Z,10.45
2018-08-17T10:30:26.865Z,12.45
2018-08-17T10:32:56.437Z,10.78
2018-08-17T10:35:31.231Z,10.60
2018-08-17T10:38:01.237Z,11.35
2018-08-17T10:40:29.689Z,11.63
2018-08-17T10:42:59.555Z,12.68
2018-08-17T10:45:28.320Z,11.28
2018-08-17T10:47:57.058Z,11.97
2018-08-17T10:50:26.671Z,11.85
2018-08-17T10:52:58.374Z,12.33
2018-08-17T10:55:35.698Z,10.68
2018-08-17T10:58:04.966Z,9.70
2018-08-17T11:00:33.244Z,10.70
2018-08-17T11:03:01.490Z,9.95
2018-08-17T11:05:29.823Z,11.28
2018-08-17T11:07:58.051Z,11.30
2018-08-17T11:10:27.815Z,11.68
2018-08-17T11:12:56.098Z,10.82
2018-08-17T11:15:24.418Z,13.88
2018-08-17T11:17:52.669Z,11.63
2018-08-17T11:20:20.968Z,10.60
2018-08-17T11:22:49.259Z,12.50
2018-08-17T11:25:17.483Z,17.95
2018-08-17T11:27:46.235Z,12.07
2018-08-17T11:30:15.061Z,11.83
2018-08-17T11:32:43.463Z,13.75
2018-08-17T11:35:11.794Z,11.75
2018-08-17T11:37:40.021Z,10.50
2018-08-17T11:40:10.435Z,12.55
2018-08-17T11:42:41.762Z,11.68
2018-08-17T11:45:17.377Z,10.78
2018-08-17T11:47:46.882Z,11.63
2018-08-17T11:50:16.750Z,13.10
2018-08-17T11:52:50.570Z,13.13
2018-08-17T11:55:19.352Z,12.23
2018-08-17T11:57:47.626Z,14.28
2018-08-17T12:00:16.356Z,11.78
2018-08-17T12:02:44.978Z,14.78
2018-08-17T12:05:13.379Z,13.75
2018-08-17T12:07:42.659Z,12.05
2018-08-17T12:10:11.022Z,10.80
2018-08-17T12:12:41.090Z,14.45
2018-08-17T12:15:10.399Z,13.50
2018-08-17T12:17:38.746Z,10.63
2018-08-17T12:20:07.221Z,10.90
2018-08-17T12:22:35.672Z,10.20
2018-08-17T12:25:04.399Z,11.10
2018-08-17T12:27:32.790Z,12.73
2018-08-17T12:30:01.114Z,12.88
2018-08-17T12:32:29.376Z,14.38
2018-08-17T12:34:58.290Z,13.95
2018-08-17T12:37:26.625Z,16.55
2018-08-17T12:39:54.946Z,14.05
2018-08-17T12:42:23.318Z,16.40
2018-08-17T12:44:51.558Z,14.50
2018-08-17T12:47:19.902Z,11.00
2018-08-17T12:49:48.654Z,11.65
2018-08-17T12:52:17.084Z,13.72
2018-08-17T12:54:45.343Z,13.53
2018-08-17T12:57:15.230Z,9.98
2018-08-17T12:59:43.462Z,15.68
2018-08-17T13:02:11.835Z,12.80
2018-08-17T13:04:40.275Z,9.33
2018-08-17T13:07:08.562Z,12.45
2018-08-17T13:09:36.884Z,10.35
2018-08-17T13:12:05.326Z,10.38
2018-08-17T13:14:34.266Z,9.55
2018-08-17T13:17:02.612Z,11.73
2018-08-17T13:19:31.487Z,10.35
2018-08-17T13:21:59.839Z,9.80
2018-08-17T13:24:28.088Z,13.20
2018-08-17T13:26:56.706Z,9.60
2018-08-17T13:29:25.057Z,8.55
2018-08-17T13:31:53.475Z,9.35
2018-08-17T13:34:21.768Z,10.25
2018-08-17T13:36:50.123Z,10.95
2018-08-17T13:39:18.376Z,9.98
2018-08-17T13:41:46.966Z,11.03
2018-08-17T13:44:15.223Z,11.20
2018-08-17T13:46:43.490Z,10.80
2018-08-17T13:49:11.776Z,8.48
2018-08-17T13:51:40.135Z,12.45
2018-08-17T13:54:08.463Z,8.48
2018-08-17T13:56:36.954Z,8.80
2018-08-17T13:59:05.288Z,9.28
2018-08-17T14:01:33.582Z,7.65
2018-08-17T14:04:03.522Z,10.35
2018-08-17T14:06:31.769Z,8.80
2018-08-17T14:09:00.029Z,8.03
2018-08-17T14:11:28.376Z,8.43
2018-08-17T14:13:56.650Z,10.18
2018-08-17T14:16:25.158Z,7.90
2018-08-17T14:18:54.126Z,7.80
2018-08-17T14:21:22.490Z,8.88
2018-08-17T14:23:50.747Z,7.65
2018-08-17T14:26:19.757Z,7.60
2018-08-17T14:28:48.125Z,7.80
2018-08-17T14:31:16.349Z,8.98
2018-08-17T14:33:46.091Z,7.90
2018-08-17T14:36:14.348Z,8.00
2018-08-17T14:38:42.668Z,8.85
2018-08-17T14:41:11.095Z,7.60
2018-08-17T14:43:39.347Z,7.87
2018-08-17T14:46:07.594Z,7.40
2018-08-17T14:48:36.802Z,7.08
2018-08-17T14:51:05.042Z,7.03
2018-08-17T14:53:33.375Z,7.47
2018-08-17T14:56:01.718Z,7.90
2018-08-17T14:58:30.053Z,7.65
2018-08-17T15:00:58.446Z,7.40
2018-08-17T15:03:27.287Z,7.40
2018-08-17T15:05:55.525Z,8.08
2018-08-17T15:08:23.773Z,6.78
2018-08-17T15:10:53.026Z,7.58
2018-08-17T15:13:21.275Z,7.42
2018-08-17T15:15:49.515Z,7.33
2018-08-17T15:18:18.481Z,7.10
2018-08-17T15:20:46.777Z,9.18
2018-08-17T15:23:15.035Z,9.40
2018-08-17T15:25:43.580Z,6.97
2018-08-17T15:28:12.010Z,8.45
2018-08-17T15:30:40.250Z,6.70
2018-08-17T15:33:09.778Z,7.28
2018-08-17T15:35:38.142Z,7.67
2018-08-17T15:38:06.399Z,6.30
2018-08-17T15:40:34.922Z,7.65
2018-08-17T15:43:08.648Z,7.55
2018-08-17T15:45:37.618Z,8.30
2018-08-17T15:48:05.892Z,8.58
2018-08-17T15:50:34.148Z,6.92
2018-08-17T15:53:03.163Z,7.90
2018-08-17T15:55:31.546Z,7.33
2018-08-17T15:57:59.947Z,7.45
2018-08-17T16:00:28.419Z,8.25
2018-08-17T16:02:56.642Z,6.50
2018-08-17T16:05:25.036Z,7.35
2018-08-17T16:07:53.756Z,6.85
2018-08-17T16:10:22.015Z,7.58
2018-08-17T16:12:50.251Z,6.72
2018-08-17T16:15:19.200Z,6.97
2018-08-17T16:17:47.527Z,7.90
2018-08-17T16:20:16.539Z,7.50
2018-08-17T16:22:44.822Z,7.67
2018-08-17T16:25:13.613Z,6.37
2018-08-17T16:27:42.554Z,7.00
2018-08-17T16:30:13.770Z,8.08
2018-08-17T16:32:42.286Z,8.00
2018-08-17T16:35:11.272Z,6.60
2018-08-17T16:37:44.895Z,6.17
2018-08-17T16:40:13.327Z,7.03
2018-08-17T16:42:41.647Z,6.85
2018-08-17T16:45:10.328Z,6.67
2018-08-17T16:47:38.652Z,6.42
2018-08-17T16:50:08.120Z,6.95
2018-08-17T16:52:36.357Z,6.45
2018-08-17T16:55:05.146Z,6.10
2018-08-17T16:57:33.391Z,7.17
2018-08-17T17:00:01.658Z,6.15
2018-08-17T17:02:30.996Z,6.58
2018-08-17T17:05:01.419Z,6.65
2018-08-17T17:07:32.095Z,6.75
2018-08-17T17:10:00.666Z,5.80
2018-08-17T17:12:28.926Z,7.10
2018-08-17T17:15:22.417Z,6.08
2018-08-17T17:17:57.583Z,6.40
2018-08-17T17:20:31.838Z,6.25
2018-08-17T17:23:00.177Z,7.37
2018-08-17T17:25:28.552Z,6.45
2018-08-17T17:27:57.504Z,5.95
2018-08-17T17:30:40.070Z,6.67
2018-08-17T17:33:09.185Z,6.37
2018-08-17T17:35:38.358Z,6.42
2018-08-17T17:38:06.811Z,6.55
2018-08-17T17:40:35.107Z,6.97
2018-08-17T17:43:03.766Z,8.13
2018-08-17T17:45:32.417Z,8.03
2018-08-17T17:48:01.562Z,6.22
2018-08-17T17:50:29.948Z,7.08
2018-08-17T17:52:59.095Z,9.13
2018-08-17T17:55:50.930Z,9.73
2018-08-17T17:58:20.817Z,6.25
2018-08-17T18:00:58.010Z,7.20
2018-08-17T18:03:28.631Z,8.50
2018-08-17T18:06:06.789Z,6.37
2018-08-17T18:08:35.162Z,6.97
2018-08-17T18:11:03.532Z,9.30
2018-08-17T18:13:31.809Z,9.13
2018-08-17T18:16:00.799Z,14.75
2018-08-17T18:18:29.142Z,13.75
2018-08-17T18:20:58.290Z,13.45
2018-08-17T18:23:26.583Z,8.68
2018-08-17T18:25:54.858Z,8.00
2018-08-17T18:28:23.474Z,10.48
2018-08-17T18:30:51.871Z,5.90
2018-08-17T18:33:20.121Z,8.43
2018-08-17T18:35:50.184Z,9.23
2018-08-17T18:38:18.444Z,11.12
2018-08-17T18:40:46.762Z,7.67
2018-08-17T18:43:15.054Z,10.78
2018-08-17T18:45:43.413Z,8.93
2018-08-17T18:48:11.730Z,12.73
2018-08-17T18:50:40.264Z,8.78
2018-08-17T18:53:08.563Z,8.98
2018-08-17T18:55:36.807Z,6.85
2018-08-17T18:58:06.102Z,9.90
2018-08-17T19:00:34.381Z,7.10
2018-08-17T19:03:02.715Z,9.35
2018-08-17T19:05:31.243Z,8.53
2018-08-17T19:07:59.589Z,7.08
2018-08-17T19:10:28.154Z,7.62
2018-08-17T19:12:56.484Z,6.95
2018-08-17T19:15:25.025Z,11.35
2018-08-17T19:17:53.289Z,6.90
2018-08-17T19:20:22.714Z,5.58
2018-08-17T19:22:51.697Z,5.20
2018-08-17T19:25:19.956Z,8.83
2018-08-17T19:27:48.722Z,6.97
2018-08-17T19:30:25.311Z,7.20
2018-08-17T19:32:55.084Z,6.65
2018-08-17T19:35:23.349Z,7.50
2018-08-17T19:37:52.322Z,6.92
2018-08-17T19:40:21.672Z,6.70
2018-08-17T19:42:50.224Z,8.73
2018-08-17T19:45:18.978Z,7.85
2018-08-17T19:47:47.458Z,6.83
2018-08-17T19:50:15.822Z,7.92
2018-08-17T19:52:44.107Z,6.45
2018-08-17T19:55:13.076Z,10.15
2018-08-17T19:57:41.430Z,6.20
2018-08-17T20:00:10.787Z,6.22
2018-08-17T20:02:40.220Z,5.00
2018-08-17T20:05:10.583Z,5.95
2018-08-17T20:07:39.415Z,8.10
2018-08-17T20:10:08.937Z,8.38
2018-08-17T20:12:37.335Z,9.65
2018-08-17T20:15:06.174Z,5.78
2018-08-17T20:17:34.558Z,7.53
2018-08-17T20:20:03.133Z,13.00
2018-08-17T20:22:31.406Z,5.58
2018-08-17T20:25:00.012Z,8.30
2018-08-17T20:27:28.653Z,6.45
2018-08-17T20:30:05.004Z,7.10
2018-08-17T20:32:33.728Z,5.25
2018-08-17T20:35:02.086Z,7.75
2018-08-17T20:37:30.319Z,5.62
2018-08-17T20:39:59.055Z,6.92
2018-08-17T20:42:28.511Z,7.28
2018-08-17T20:44:56.861Z,6.62
2018-08-17T20:47:25.176Z,5.42
2018-08-17T20:49:53.414Z,4.62
2018-08-17T20:52:21.763Z,6.58
2018-08-17T20:54:50.102Z,6.58
2018-08-17T20:57:18.440Z,5.60
2018-08-17T20:59:46.763Z,5.47
2018-08-17T21:02:15.798Z,4.70
2018-08-17T21:04:44.043Z,4.60
2018-08-17T21:07:12.389Z,5.30
2018-08-17T21:09:40.888Z,7.00
2018-08-17T21:12:09.243Z,5.30
2018-08-17T21:14:37.494Z,5.05
2018-08-17T21:17:06.382Z,5.40
2018-08-17T21:19:38.946Z,5.30
2018-08-17T21:22:09.282Z,4.58
2018-08-17T21:24:37.621Z,5.00
2018-08-17T21:27:07.096Z,4.47
2018-08-17T21:29:35.954Z,4.33
2018-08-17T21:32:04.153Z,4.87
2018-08-17T21:34:32.951Z,4.15
2018-08-17T21:37:01.601Z,5.37
2018-08-17T21:39:29.947Z,4.60
2018-08-17T21:41:58.195Z,5.08
2018-08-17T21:44:27.459Z,4.65
2018-08-17T21:47:02.426Z,4.75
2018-08-17T21:49:30.967Z,4.62
2018-08-17T21:52:32.229Z,4.47
2018-08-17T21:55:01.627Z,4.35
2018-08-17T21:57:29.869Z,4.90
2018-08-17T21:59:58.221Z,4.60
2018-08-17T22:02:26.531Z,4.45
2018-08-17T22:04:54.899Z,4.08
2018-08-17T22:07:24.196Z,4.15
2018-08-17T22:09:53.629Z,4.33
2018-08-17T22:12:22.149Z,4.33
2018-08-17T22:14:50.531Z,4.30
2018-08-17T22:17:31.835Z,3.92
2018-08-17T22:20:00.307Z,4.37
2018-08-17T22:22:28.578Z,4.85
2018-08-17T22:24:58.251Z,4.15
2018-08-17T22:27:34.756Z,4.03
2018-08-17T22:30:03.287Z,4.78
2018-08-17T22:32:31.542Z,3.77
2018-08-17T22:34:59.791Z,3.77
2018-08-17T22:37:28.342Z,3.80
2018-08-17T22:39:56.702Z,4.20
2018-08-17T22:42:25.020Z,4.28
2018-08-17T22:44:53.688Z,3.67
2018-08-17T22:47:25.703Z,4.00
2018-08-17T22:49:56.745Z,3.77
2018-08-17T22:52:24.982Z,6.20
2018-08-17T22:54:58.470Z,4.75
2018-08-17T22:57:27.565Z,3.40
2018-08-17T23:00:09.223Z,3.98
2018-08-17T23:02:38.146Z,4.17
2018-08-17T23:05:09.474Z,3.70
2018-08-17T23:07:38.038Z,3.85
2018-08-17T23:10:08.461Z,4.25
2018-08-17T23:12:36.707Z,3.70
2018-08-17T23:15:06.859Z,4.03
2018-08-17T23:17:35.105Z,4.20
2018-08-17T23:20:03.650Z,3.83
2018-08-17T23:22:32.850Z,3.90
2018-08-17T23:25:01.271Z,3.60
2018-08-17T23:27:30.146Z,3.83
2018-08-17T23:29:58.542Z,3.40
2018-08-17T23:32:26.786Z,3.98
2018-08-17T23:34:55.015Z,3.40
2018-08-17T23:37:24.763Z,3.37
2018-08-17T23:39:53.067Z,3.90
2018-08-17T23:42:21.303Z,4.12
2018-08-17T23:44:50.631Z,3.60
2018-08-17T23:47:18.869Z,3.60
2018-08-17T23:49:47.099Z,3.98
2018-08-17T23:52:15.807Z,3.70
2018-08-17T23:54:44.073Z,3.50
2018-08-17T23:57:12.346Z,3.30
2018-08-17T23:59:41.002Z,3.17
